Time;durP1;ratioP1;P1;durP2;ratioP2;P2;SDS_P1;SDS_P2;PMS_P1;PMS_P2;Temp;Humidity;BMP_temperature;BMP_pressure;BME280_temperature;BME280_humidity;BME280_pressure;Samples;Min_cycle;Max_cycle;Signal;HPM_P1;HPM_P2
2022/09/29 00:01:32;;;;;;;2.97;2.13;;;8.70;99.90;;;;;;5040929;28;20196;-86
2022/09/29 00:04:00;;;;;;;3.15;1.77;;;8.70;99.90;;;;;;5033512;28;20599;-85
2022/09/29 00:06:27;;;;;;;3.45;2.08;;;8.70;99.90;;;;;;5035204;28;20245;-86
2022/09/29 00:09:00;;;;;;;3.40;1.70;;;8.70;99.90;;;;;;5030946;28;20552;-86
2022/09/29 00:11:27;;;;;;;3.45;1.85;;;8.70;99.90;;;;;;5035697;28;20206;-86
2022/09/29 00:14:25;;;;;;;2.20;1.88;;;8.70;99.90;;;;;;5034739;28;20209;-86
2022/09/29 00:16:54;;;;;;;2.28;1.90;;;8.70;99.90;;;;;;5032935;28;20284;-85
2022/09/29 00:19:36;;;;;;;1.88;1.73;;;8.70;99.90;;;;;;5032825;28;20209;-86
2022/09/29 00:22:06;;;;;;;1.70;1.60;;;8.60;99.90;;;;;;5031662;28;20210;-85
2022/09/29 00:24:36;;;;;;;4.07;1.88;;;8.60;99.90;;;;;;5027518;28;20327;-85
2022/09/29 00:27:06;;;;;;;2.50;1.83;;;8.60;99.90;;;;;;5032211;28;20224;-86
2022/09/29 00:29:38;;;;;;;2.95;1.73;;;8.70;99.90;;;;;;5040962;28;20195;-85
2022/09/29 00:32:24;;;;;;;3.25;1.80;;;8.60;99.90;;;;;;5033199;28;20887;-86
2022/09/29 00:35:00;;;;;;;1.70;1.55;;;8.50;99.90;;;;;;5034789;28;20673;-86
2022/09/29 00:37:30;;;;;;;1.98;1.83;;;8.50;99.90;;;;;;5032880;28;20206;-86
2022/09/29 00:40:01;;;;;;;1.95;1.67;;;8.40;99.90;;;;;;5029108;28;20599;-86
2022/09/29 00:42:31;;;;;;;1.98;1.88;;;8.40;99.90;;;;;;5035700;28;20201;-86
2022/09/29 00:45:30;;;;;;;2.50;1.67;;;8.40;99.90;;;;;;5030999;28;20187;-86
2022/09/29 00:48:12;;;;;;;2.90;1.95;;;8.40;99.90;;;;;;5035876;28;20673;-85
2022/09/29 00:50:46;;;;;;;1.67;1.58;;;8.40;99.90;;;;;;5031004;28;20654;-86
2022/09/29 00:53:21;;;;;;;2.60;1.50;;;8.50;99.90;;;;;;5021716;28;20207;-86
2022/09/29 00:55:53;;;;;;;6.03;1.70;;;8.60;99.90;;;;;;5032123;28;20216;-85
2022/09/29 00:58:39;;;;;;;2.80;1.80;;;8.50;99.90;;;;;;5032965;28;20194;-86
2022/09/29 01:01:36;;;;;;;1.75;1.48;;;8.50;99.90;;;;;;5031446;28;20560;-85
2022/09/29 01:04:13;;;;;;;3.22;1.40;;;8.40;99.90;;;;;;5030210;28;20285;-86
2022/09/29 01:06:45;;;;;;;3.05;1.70;;;8.40;99.90;;;;;;5031379;28;20213;-86
2022/09/29 01:09:21;;;;;;;2.88;1.70;;;8.40;99.90;;;;;;5027854;28;20201;-86
2022/09/29 01:11:57;;;;;;;2.60;1.42;;;8.40;99.90;;;;;;5030354;28;20202;-85
2022/09/29 01:14:36;;;;;;;1.40;1.30;;;8.30;99.90;;;;;;5028305;28;20317;-85
2022/09/29 01:17:04;;;;;;;3.97;1.95;;;8.20;99.90;;;;;;5025794;28;20224;-85
2022/09/29 01:19:48;;;;;;;2.75;2.00;;;8.10;99.90;;;;;;5027003;28;20187;-85
2022/09/29 01:22:40;;;;;;;3.42;1.88;;;8.10;99.90;;;;;;5021006;28;20211;-86
2022/09/29 01:25:26;;;;;;;4.40;1.80;;;8.10;99.90;;;;;;5024805;28;20190;-86
2022/09/29 01:28:29;;;;;;;2.67;2.03;;;8.10;99.90;;;;;;5025163;28;20206;-86
2022/09/29 01:31:21;;;;;;;2.10;1.50;;;8.10;99.90;;;;;;5021389;28;20205;-86
2022/09/29 01:34:12;;;;;;;2.17;1.90;;;8.20;99.90;;;;;;5033361;28;20266;-85
2022/09/29 01:37:05;;;;;;;1.80;1.70;;;8.20;99.90;;;;;;5030006;28;20214;-85
2022/09/29 01:39:41;;;;;;;1.85;1.70;;;8.30;99.90;;;;;;5028913;28;20878;-86
2022/09/29 01:42:18;;;;;;;1.98;1.77;;;8.20;99.90;;;;;;5026776;28;20709;-86
2022/09/29 01:45:14;;;;;;;2.75;1.83;;;8.20;99.90;;;;;;5021606;28;20576;-86
2022/09/29 01:47:45;;;;;;;3.90;1.80;;;8.20;99.90;;;;;;5029056;28;20202;-86
2022/09/29 01:50:34;;;;;;;5.40;1.67;;;8.20;99.90;;;;;;5036055;28;20705;-85
2022/09/29 01:53:33;;;;;;;1.90;1.70;;;8.20;99.90;;;;;;5027096;28;20201;-85
2022/09/29 01:56:21;;;;;;;4.40;1.60;;;8.20;99.90;;;;;;5031581;28;20211;-85
2022/09/29 01:58:58;;;;;;;3.05;1.80;;;8.20;99.90;;;;;;5036691;28;20277;-85
2022/09/29 02:01:37;;;;;;;1.60;1.50;;;8.30;99.90;;;;;;5035817;28;20645;-85
2022/09/29 02:04:18;;;;;;;1.60;1.50;;;8.30;99.90;;;;;;5042411;28;20670;-85
2022/09/29 02:07:08;;;;;;;2.35;1.67;;;8.30;99.90;;;;;;5035919;28;20201;-85
2022/09/29 02:09:40;;;;;;;2.70;1.73;;;8.20;99.90;;;;;;5035648;28;20278;-85
2022/09/29 02:12:10;;;;;;;2.03;1.63;;;8.30;99.90;;;;;;5037950;28;20202;-85
2022/09/29 02:14:46;;;;;;;2.13;1.75;;;8.30;99.90;;;;;;5041181;28;20204;-85
2022/09/29 02:17:19;;;;;;;2.42;1.90;;;8.30;99.90;;;;;;5039202;28;20207;-85
2022/09/29 02:19:52;;;;;;;1.80;1.70;;;8.20;99.90;;;;;;5039078;28;20202;-86
2022/09/29 02:22:31;;;;;;;2.17;1.83;;;8.20;99.90;;;;;;5042420;28;20198;-85
2022/09/29 02:25:10;;;;;;;1.92;1.80;;;8.20;99.90;;;;;;5034951;28;20541;-86
2022/09/29 02:27:37;;;;;;;3.15;1.80;;;8.20;99.90;;;;;;5039426;28;20205;-86
2022/09/29 02:30:13;;;;;;;2.30;1.70;;;8.20;99.90;;;;;;5033156;28;20230;-86
2022/09/29 02:32:48;;;;;;;1.67;1.50;;;8.20;99.90;;;;;;5034670;28;20207;-86
2022/09/29 02:35:45;;;;;;;1.70;1.60;;;8.20;99.90;;;;;;5042561;28;20194;-86
2022/09/29 02:38:34;;;;;;;1.60;1.50;;;8.30;99.90;;;;;;5034450;28;20209;-86
2022/09/29 02:41:27;;;;;;;1.40;1.30;;;8.30;99.90;;;;;;5036245;28;20198;-86
2022/09/29 02:44:21;;;;;;;2.05;1.83;;;8.30;99.90;;;;;;5036185;28;20198;-85
2022/09/29 02:47:03;;;;;;;2.35;1.58;;;8.30;99.90;;;;;;5038067;28;20205;-85
2022/09/29 02:49:44;;;;;;;2.05;1.70;;;8.30;99.90;;;;;;5034631;28;20190;-86
2022/09/29 02:52:37;;;;;;;1.95;1.77;;;8.30;99.90;;;;;;5026403;28;20201;-85
2022/09/29 02:55:19;;;;;;;1.77;1.67;;;8.20;99.90;;;;;;5039221;28;20254;-86
2022/09/29 02:57:53;;;;;;;3.05;1.83;;;8.20;99.90;;;;;;5040524;28;20236;-86
2022/09/29 03:00:27;;;;;;;2.15;1.63;;;8.10;99.90;;;;;;5039060;28;20201;-85
2022/09/29 03:02:54;;;;;;;2.53;1.85;;;8.10;99.90;;;;;;5038397;28;20199;-85
2022/09/29 03:05:36;;;;;;;1.88;1.60;;;8.00;99.90;;;;;;5042058;28;20214;-85
2022/09/29 03:08:37;;;;;;;1.60;1.50;;;8.10;99.90;;;;;;5036810;28;20613;-85
2022/09/29 03:11:06;;;;;;;3.72;1.90;;;8.10;99.90;;;;;;5031600;28;20253;-85
2022/09/29 03:13:43;;;;;;;2.30;2.10;;;8.10;99.90;;;;;;5036811;28;20280;-86
2022/09/29 03:16:12;;;;;;;2.33;1.80;;;8.10;99.90;;;;;;5029552;28;20721;-85
2022/09/29 03:18:42;;;;;;;2.72;2.28;;;8.20;99.90;;;;;;5028670;28;20213;-86
2022/09/29 03:21:10;;;;;;;2.03;1.92;;;8.20;99.90;;;;;;5036824;28;20202;-85
2022/09/29 03:23:50;;;;;;;2.08;1.98;;;8.20;99.90;;;;;;5037744;28;20194;-85
2022/09/29 03:26:17;;;;;;;2.15;2.03;;;8.30;99.90;;;;;;5036977;28;20562;-85
2022/09/29 03:29:00;;;;;;;2.35;1.90;;;8.30;99.90;;;;;;5034950;28;20666;-85
2022/09/29 03:31:27;;;;;;;2.35;2.15;;;8.30;99.90;;;;;;5032464;28;20226;-86
2022/09/29 03:33:54;;;;;;;2.30;2.10;;;8.30;99.90;;;;;;5033528;28;20199;-85
2022/09/29 03:36:21;;;;;;;2.33;2.13;;;8.20;99.90;;;;;;5042443;28;20276;-85
2022/09/29 03:38:50;;;;;;;2.70;2.13;;;8.20;99.90;;;;;;5047097;28;20216;-85
2022/09/29 03:41:18;;;;;;;2.92;2.40;;;8.20;99.90;;;;;;5035484;28;20202;-86
2022/09/29 03:43:45;;;;;;;3.65;2.40;;;8.30;99.90;;;;;;5039467;28;20199;-85
2022/09/29 03:46:12;;;;;;;2.42;2.20;;;8.30;99.90;;;;;;5029558;28;20191;-85
2022/09/29 03:48:40;;;;;;;3.70;2.40;;;8.40;99.90;;;;;;5033858;28;20198;-86
2022/09/29 03:51:18;;;;;;;3.55;2.42;;;8.30;99.90;;;;;;5035473;28;20614;-86
2022/09/29 03:53:50;;;;;;;2.63;2.03;;;8.30;99.90;;;;;;5029850;28;20194;-86
2022/09/29 03:56:17;;;;;;;2.63;2.42;;;8.30;99.90;;;;;;5035964;28;20286;-86
2022/09/29 03:58:44;;;;;;;2.80;2.50;;;8.40;99.90;;;;;;5036722;28;20793;-85
2022/09/29 04:01:12;;;;;;;2.40;2.20;;;8.40;99.90;;;;;;5036412;28;20297;-85
2022/09/29 04:03:42;;;;;;;2.60;2.38;;;8.40;99.90;;;;;;5036008;28;20206;-85
2022/09/29 04:06:13;;;;;;;4.78;2.30;;;8.40;99.90;;;;;;5031557;28;20222;-85
2022/09/29 04:09:07;;;;;;;3.30;2.35;;;8.40;99.90;;;;;;5031386;28;20206;-86
2022/09/29 04:11:34;;;;;;;2.42;2.22;;;8.40;99.90;;;;;;5036113;28;20203;-85
2022/09/29 04:14:07;;;;;;;3.38;2.10;;;8.40;99.90;;;;;;5036140;28;20230;-85
2022/09/29 04:16:36;;;;;;;2.25;2.05;;;8.50;99.90;;;;;;5030943;28;20704;-85
2022/09/29 04:19:04;;;;;;;2.67;2.13;;;8.50;99.90;;;;;;5029753;28;20278;-85
2022/09/29 04:21:37;;;;;;;3.33;2.10;;;8.50;99.90;;;;;;5029533;28;20195;-85
2022/09/29 04:24:14;;;;;;;2.75;2.30;;;8.50;99.90;;;;;;5030029;28;20257;-86
2022/09/29 04:26:41;;;;;;;2.65;2.30;;;8.50;99.90;;;;;;5026074;28;20210;-85
2022/09/29 04:29:13;;;;;;;2.45;2.25;;;8.40;99.90;;;;;;5032743;28;20260;-85
2022/09/29 04:31:42;;;;;;;2.83;2.40;;;8.40;99.90;;;;;;5023808;28;20293;-86
2022/09/29 04:34:12;;;;;;;5.75;2.65;;;8.40;99.90;;;;;;5032389;28;20289;-85
2022/09/29 04:36:39;;;;;;;2.42;2.22;;;8.30;99.90;;;;;;5030322;28;20289;-86
2022/09/29 04:39:06;;;;;;;3.30;2.35;;;8.30;99.90;;;;;;5030724;28;20269;-86
2022/09/29 04:41:38;;;;;;;3.00;2.00;;;8.20;99.90;;;;;;5030015;28;20293;-86
2022/09/29 04:44:12;;;;;;;2.53;2.20;;;8.20;99.90;;;;;;5030482;28;20265;-86
2022/09/29 04:46:39;;;;;;;3.55;2.25;;;8.20;99.90;;;;;;5036311;28;20217;-87
2022/09/29 04:49:13;;;;;;;2.83;2.45;;;8.20;99.90;;;;;;5029546;28;20533;-86
2022/09/29 04:51:42;;;;;;;2.90;2.63;;;8.10;99.90;;;;;;5031337;28;20210;-87
2022/09/29 04:54:09;;;;;;;2.60;2.40;;;7.90;99.90;;;;;;5037593;28;20201;-86
2022/09/29 04:56:39;;;;;;;2.97;2.47;;;7.90;99.90;;;;;;5032208;28;20234;-86
2022/09/29 04:59:07;;;;;;;3.58;2.70;;;7.90;99.90;;;;;;5033843;28;20264;-86
2022/09/29 05:01:36;;;;;;;5.28;2.72;;;7.90;99.90;;;;;;5034143;28;20199;-86
2022/09/29 05:04:08;;;;;;;2.42;2.22;;;7.90;99.90;;;;;;5034131;28;20270;-86
2022/09/29 05:06:38;;;;;;;2.53;2.33;;;8.00;99.90;;;;;;5031013;28;20204;-86
2022/09/29 05:09:07;;;;;;;5.38;2.70;;;8.10;99.90;;;;;;5032455;28;20662;-86
2022/09/29 05:11:34;;;;;;;2.58;2.38;;;8.10;99.90;;;;;;5033208;28;20265;-86
2022/09/29 05:14:08;;;;;;;3.58;2.60;;;8.10;99.90;;;;;;5034263;28;20198;-86
2022/09/29 05:16:35;;;;;;;3.85;2.70;;;8.10;99.90;;;;;;5028753;28;20199;-86
2022/09/29 05:19:02;;;;;;;5.82;2.70;;;8.10;99.90;;;;;;5029057;28;20763;-87
2022/09/29 05:21:29;;;;;;;2.70;2.50;;;8.00;99.90;;;;;;5032164;28;20673;-86
2022/09/29 05:23:56;;;;;;;2.75;2.55;;;8.10;99.90;;;;;;5037339;28;20278;-86
2022/09/29 05:26:24;;;;;;;2.95;2.50;;;8.00;99.90;;;;;;5040348;28;20289;-88
2022/09/29 05:28:55;;;;;;;5.50;2.40;;;8.00;99.90;;;;;;5032293;28;20206;-86
2022/09/29 05:31:23;;;;;;;2.80;2.60;;;8.00;99.90;;;;;;5037018;28;20295;-86
2022/09/29 05:33:56;;;;;;;3.08;2.78;;;8.00;99.90;;;;;;5039157;28;20277;-89
2022/09/29 05:37:06;;;;;;;6.03;3.22;;;8.00;99.90;;;;;;5038091;28;20286;-85
2022/09/29 05:39:37;;;;;;;3.17;2.88;;;8.00;99.90;;;;;;5028330;28;20290;-87
2022/09/29 05:42:05;;;;;;;2.80;2.50;;;8.10;99.90;;;;;;5037695;28;20195;-87
2022/09/29 05:44:37;;;;;;;4.15;2.72;;;8.10;99.90;;;;;;5034029;28;20198;-87
2022/09/29 05:47:05;;;;;;;3.08;2.60;;;8.20;99.90;;;;;;5036641;28;20285;-88
2022/09/29 05:49:34;;;;;;;4.90;3.90;;;8.30;99.90;;;;;;5030941;28;20191;-87
2022/09/29 05:52:07;;;;;;;5.25;3.95;;;8.40;99.90;;;;;;5035575;28;20199;-87
2022/09/29 05:54:37;;;;;;;8.05;4.63;;;8.40;99.90;;;;;;5037855;28;20252;-87
2022/09/29 05:57:04;;;;;;;5.35;3.80;;;8.50;99.90;;;;;;5035815;28;20217;-87
2022/09/29 05:59:31;;;;;;;4.55;3.53;;;8.50;99.90;;;;;;5041309;28;20274;-87
2022/09/29 06:02:09;;;;;;;4.30;3.55;;;8.50;99.90;;;;;;5026663;28;20199;-87
2022/09/29 06:04:37;;;;;;;3.55;3.22;;;8.50;99.90;;;;;;5029367;28;20268;-87
2022/09/29 06:07:07;;;;;;;4.45;3.33;;;8.50;99.90;;;;;;5027202;28;20214;-87
2022/09/29 06:09:37;;;;;;;4.00;3.60;;;8.50;99.90;;;;;;5032904;28;20633;-86
2022/09/29 06:12:04;;;;;;;4.55;3.40;;;8.60;99.90;;;;;;5023191;28;20195;-87
2022/09/29 06:14:37;;;;;;;4.10;3.70;;;8.70;99.90;;;;;;5028740;28;20226;-86
2022/09/29 06:17:14;;;;;;;6.40;3.90;;;8.80;99.90;;;;;;5029880;28;20187;-87
2022/09/29 06:19:43;;;;;;;6.13;4.45;;;8.90;99.90;;;;;;5032185;28;20199;-86
2022/09/29 06:22:10;;;;;;;7.68;4.55;;;8.90;99.90;;;;;;5007867;28;20195;-87
2022/09/29 06:24:37;;;;;;;7.10;4.20;;;8.90;99.90;;;;;;5011715;28;20225;-87
2022/09/29 06:27:24;;;;;;;6.55;4.18;;;9.00;99.90;;;;;;5031706;28;20735;-87
2022/09/29 06:29:51;;;;;;;6.35;3.90;;;9.10;99.90;;;;;;5037152;28;20191;-87
2022/09/29 06:32:20;;;;;;;5.03;3.72;;;9.10;99.90;;;;;;5044781;28;20198;-87
2022/09/29 06:37:38;;;;;;;3.33;2.65;;;8.90;99.90;;;;;;5037871;28;20221;-86
2022/09/29 06:40:08;;;;;;;3.17;2.47;;;9.10;99.90;;;;;;5037562;28;20198;-87
2022/09/29 06:42:37;;;;;;;3.10;2.60;;;9.20;99.90;;;;;;5038434;28;20654;-86
2022/09/29 06:45:04;;;;;;;2.80;2.53;;;9.10;99.90;;;;;;5018816;28;20203;-86
2022/09/29 06:47:39;;;;;;;1.85;1.73;;;9.30;99.90;;;;;;5036628;28;20194;-86
2022/09/29 06:50:13;;;;;;;2.58;2.00;;;9.50;98.60;;;;;;5033778;28;20226;-85
2022/09/29 06:53:07;;;;;;;3.65;2.13;;;9.70;98.50;;;;;;5027757;28;20728;-87
2022/09/29 06:55:34;;;;;;;4.70;2.30;;;9.70;98.20;;;;;;5029524;28;20290;-87
2022/09/29 06:58:01;;;;;;;4.63;2.80;;;9.70;98.30;;;;;;5035275;28;20298;-85
2022/09/29 07:00:31;;;;;;;4.72;2.53;;;9.60;97.80;;;;;;5032723;28;20360;-85
2022/09/29 07:03:02;;;;;;;4.78;2.50;;;9.60;98.00;;;;;;5041765;28;20213;-85
2022/09/29 07:05:30;;;;;;;4.97;2.90;;;9.70;98.20;;;;;;5037093;28;20221;-86
2022/09/29 07:08:02;;;;;;;5.30;3.03;;;9.60;98.30;;;;;;5033279;28;20191;-86
2022/09/29 07:10:29;;;;;;;5.75;2.90;;;9.50;98.90;;;;;;5036414;28;20195;-83
2022/09/29 07:12:57;;;;;;;3.60;2.35;;;9.50;99.50;;;;;;5038263;28;20285;-84
2022/09/29 07:15:30;;;;;;;2.90;2.53;;;9.60;99.70;;;;;;5038306;28;20245;-85
2022/09/29 07:17:57;;;;;;;7.57;2.80;;;9.60;99.50;;;;;;5035848;28;20257;-84
2022/09/29 07:20:25;;;;;;;3.08;2.80;;;9.50;99.80;;;;;;5036799;28;20195;-84
2022/09/29 07:23:12;;;;;;;2.92;2.20;;;9.50;99.90;;;;;;5034298;28;20685;-84
2022/09/29 07:25:46;;;;;;;3.72;2.38;;;9.70;98.90;;;;;;5035937;28;20221;-84
2022/09/29 07:28:13;;;;;;;4.95;2.45;;;9.80;98.70;;;;;;5039180;28;20214;-85
2022/09/29 07:30:43;;;;;;;3.83;2.40;;;9.90;98.80;;;;;;5029068;28;20289;-85
2022/09/29 07:33:13;;;;;;;5.80;2.58;;;10.00;96.90;;;;;;5034504;28;20242;-86
2022/09/29 07:35:59;;;;;;;3.80;2.42;;;9.90;96.10;;;;;;5024785;28;20561;-86
2022/09/29 07:38:31;;;;;;;4.63;2.28;;;10.00;96.60;;;;;;5034252;28;20213;-86
2022/09/29 07:41:08;;;;;;;4.80;2.65;;;10.10;97.10;;;;;;5028894;28;20238;-84
2022/09/29 07:43:43;;;;;;;4.90;2.92;;;10.10;96.70;;;;;;5038538;28;20194;-86
2022/09/29 07:46:19;;;;;;;5.47;2.50;;;10.30;97.00;;;;;;5036944;28;20277;-85
2022/09/29 07:48:46;;;;;;;4.15;2.85;;;10.30;97.20;;;;;;5030388;28;20199;-85
2022/09/29 07:51:38;;;;;;;2.72;1.92;;;10.30;97.60;;;;;;5017180;28;20270;-85
2022/09/29 07:54:05;;;;;;;3.38;2.30;;;10.30;97.80;;;;;;5030379;28;20853;-85
2022/09/29 07:56:37;;;;;;;4.22;2.30;;;10.20;97.30;;;;;;5033628;28;20576;-84
2022/09/29 07:59:04;;;;;;;3.05;1.73;;;10.20;97.60;;;;;;5031726;28;20226;-84
2022/09/29 08:01:37;;;;;;;2.55;1.90;;;10.30;96.70;;;;;;5029216;28;20195;-83
2022/09/29 08:04:03;;;;;;;3.95;1.88;;;10.30;96.90;;;;;;5032962;28;20206;-83
2022/09/29 08:06:32;;;;;;;1.95;1.75;;;10.20;97.10;;;;;;5034185;28;20223;-83
2022/09/29 08:09:02;;;;;;;1.38;1.27;;;10.40;97.00;;;;;;5043034;28;20206;-85
2022/09/29 08:11:43;;;;;;;1.55;1.42;;;10.50;95.80;;;;;;5016315;28;20210;-84
2022/09/29 08:14:13;;;;;;;1.45;1.35;;;10.50;96.60;;;;;;5036529;28;20275;-83
2022/09/29 08:16:40;;;;;;;3.28;1.50;;;10.60;96.50;;;;;;5035649;28;20638;-85
2022/09/29 08:19:13;;;;;;;1.80;1.50;;;10.70;96.20;;;;;;5033281;28;20651;-85
2022/09/29 08:21:44;;;;;;;2.25;1.40;;;10.90;95.20;;;;;;5033889;28;20212;-85
2022/09/29 08:24:14;;;;;;;1.80;1.42;;;11.00;94.70;;;;;;5035817;28;20212;-85
2022/09/29 08:26:41;;;;;;;5.20;1.63;;;11.00;95.90;;;;;;5025149;28;20642;-85
2022/09/29 08:29:25;;;;;;;1.60;1.50;;;11.00;95.90;;;;;;5037406;28;20209;-85
2022/09/29 08:31:55;;;;;;;3.00;1.50;;;11.60;94.70;;;;;;5017138;28;20204;-86
2022/09/29 08:34:25;;;;;;;1.40;1.30;;;11.50;93.50;;;;;;5032260;28;20190;-85
2022/09/29 08:36:52;;;;;;;2.88;1.42;;;11.40;93.40;;;;;;5035128;28;20275;-88
2022/09/29 08:39:21;;;;;;;2.63;1.35;;;11.50;94.10;;;;;;5020338;28;20214;-85
2022/09/29 08:42:00;;;;;;;1.40;1.30;;;11.50;93.40;;;;;;5037143;28;20205;-84
2022/09/29 08:44:40;;;;;;;1.20;1.10;;;11.50;93.00;;;;;;5028330;28;20206;-85
2022/09/29 08:47:19;;;;;;;1.08;1.00;;;11.60;93.40;;;;;;5026607;28;20262;-86
2022/09/29 08:49:54;;;;;;;1.48;1.33;;;11.60;93.80;;;;;;5032567;28;20291;-86
2022/09/29 08:52:34;;;;;;;1.27;1.17;;;11.70;94.50;;;;;;5039533;28;20209;-84
2022/09/29 08:55:21;;;;;;;1.25;1.15;;;11.80;93.90;;;;;;5017451;28;20209;-85
2022/09/29 08:57:50;;;;;;;2.53;1.17;;;11.90;92.00;;;;;;5032482;28;20204;-85
2022/09/29 09:00:19;;;;;;;3.33;1.10;;;11.90;93.20;;;;;;5018068;28;20226;-85
2022/09/29 09:03:21;;;;;;;1.17;1.02;;;11.90;92.20;;;;;;5040004;28;20209;-85
2022/09/29 09:06:18;;;;;;;0.85;0.77;;;11.70;92.70;;;;;;5030725;28;20222;-84
2022/09/29 09:09:15;;;;;;;1.65;1.10;;;11.90;87.00;;;;;;5039460;28;20266;-84
2022/09/29 09:12:06;;;;;;;0.82;0.70;;;11.80;85.60;;;;;;5024184;28;20221;-84
2022/09/29 09:14:48;;;;;;;1.00;1.00;;;11.50;88.30;;;;;;5036145;28;20198;-84
2022/09/29 09:17:28;;;;;;;1.15;1.00;;;11.40;92.10;;;;;;5041516;28;20222;-84
2022/09/29 09:20:22;;;;;;;1.23;1.10;;;11.40;92.40;;;;;;5030415;28;20592;-83
2022/09/29 09:22:57;;;;;;;1.20;1.10;;;11.80;91.50;;;;;;5038921;28;20195;-85
2022/09/29 09:25:30;;;;;;;1.10;1.00;;;11.90;92.70;;;;;;5022386;28;20641;-85
2022/09/29 09:28:12;;;;;;;1.20;1.10;;;11.80;92.20;;;;;;5029790;28;20195;-85
2022/09/29 09:30:49;;;;;;;0.93;0.93;;;12.00;90.80;;;;;;5036203;28;20285;-86
2022/09/29 09:33:31;;;;;;;0.98;0.93;;;11.80;91.80;;;;;;5041602;28;20261;-85
2022/09/29 09:36:03;;;;;;;0.95;0.90;;;11.80;92.60;;;;;;5018905;28;20207;-85
2022/09/29 09:38:57;;;;;;;1.55;1.10;;;11.60;93.00;;;;;;5034788;28;20226;-85
2022/09/29 09:41:27;;;;;;;3.08;1.17;;;11.60;92.70;;;;;;5030964;28;20203;-85
2022/09/29 09:43:58;;;;;;;1.95;1.00;;;11.50;92.20;;;;;;5035894;28;20230;-85
2022/09/29 09:46:41;;;;;;;1.85;1.10;;;11.50;91.80;;;;;;5039598;28;20198;-86
2022/09/29 09:49:23;;;;;;;3.35;1.20;;;11.80;91.40;;;;;;5032500;28;20232;-84
2022/09/29 09:52:12;;;;;;;3.25;1.10;;;11.60;91.80;;;;;;5034270;28;20195;-83
2022/09/29 09:54:53;;;;;;;2.05;0.88;;;11.60;92.20;;;;;;5036402;28;20194;-85
2022/09/29 09:57:59;;;;;;;2.28;1.10;;;11.70;91.50;;;;;;5025166;28;20202;-85
2022/09/29 10:00:36;;;;;;;1.33;1.10;;;11.70;91.20;;;;;;4960673;28;20326;-84
2022/09/29 10:03:19;;;;;;;3.28;1.10;;;11.60;91.40;;;;;;4963490;28;20279;-84
2022/09/29 10:06:01;;;;;;;1.52;1.13;;;11.50;92.70;;;;;;4961516;28;20225;-84
2022/09/29 10:08:37;;;;;;;2.85;1.08;;;11.50;92.90;;;;;;4956659;28;20202;-84
2022/09/29 10:11:22;;;;;;;1.38;1.27;;;11.40;91.20;;;;;;4966460;28;20216;-84
2022/09/29 10:14:00;;;;;;;2.03;1.30;;;11.30;92.20;;;;;;4964961;28;20575;-84
2022/09/29 10:16:35;;;;;;;0.98;0.98;;;11.20;93.30;;;;;;4965897;28;20195;-84
2022/09/29 10:19:02;;;;;;;1.25;1.15;;;11.20;93.70;;;;;;4960983;29;20234;-84
2022/09/29 10:21:49;;;;;;;1.95;1.23;;;11.20;93.30;;;;;;4962851;29;20209;-84
2022/09/29 10:24:26;;;;;;;1.70;1.27;;;11.40;92.10;;;;;;4957865;28;20304;-84
2022/09/29 10:27:09;;;;;;;1.75;1.10;;;11.40;93.20;;;;;;4961787;28;20211;-84
2022/09/29 10:29:39;;;;;;;1.27;0.85;;;11.40;92.40;;;;;;4961617;28;20201;-84
2022/09/29 10:32:13;;;;;;;2.03;1.02;;;11.40;92.50;;;;;;4961401;28;20197;-84
2022/09/29 10:34:42;;;;;;;1.13;1.00;;;11.50;92.60;;;;;;4958490;28;20288;-84
2022/09/29 10:37:23;;;;;;;0.82;0.82;;;11.60;93.00;;;;;;5009740;28;20199;-84
2022/09/29 10:39:51;;;;;;;2.55;1.00;;;11.80;92.30;;;;;;5040607;28;20206;-83
2022/09/29 10:42:24;;;;;;;1.20;0.93;;;11.60;91.00;;;;;;5039170;28;20201;-84
2022/09/29 10:45:10;;;;;;;1.33;1.20;;;11.60;92.30;;;;;;5032764;28;20203;-84
2022/09/29 10:47:39;;;;;;;2.65;1.23;;;11.70;91.70;;;;;;5032408;28;20207;-83
2022/09/29 10:50:22;;;;;;;1.42;1.08;;;11.70;90.70;;;;;;5038078;28;20237;-84
2022/09/29 10:52:57;;;;;;;1.30;1.10;;;11.50;91.10;;;;;;5036853;28;20205;-84
2022/09/29 10:55:26;;;;;;;1.90;1.30;;;11.40;93.10;;;;;;5038348;28;20187;-86
2022/09/29 10:57:57;;;;;;;1.83;1.25;;;11.30;92.70;;;;;;5037105;28;20254;-84
2022/09/29 11:00:27;;;;;;;1.20;1.10;;;11.30;93.10;;;;;;5038111;28;20216;-85
2022/09/29 11:03:07;;;;;;;1.35;1.23;;;11.40;93.40;;;;;;5033023;28;20191;-84
2022/09/29 11:05:53;;;;;;;1.40;1.10;;;11.60;91.90;;;;;;5022169;28;20268;-85
2022/09/29 11:08:59;;;;;;;1.40;1.30;;;11.90;90.70;;;;;;5036066;28;20210;-86
2022/09/29 11:11:34;;;;;;;3.85;1.30;;;12.00;90.30;;;;;;5033908;28;20274;-85
2022/09/29 11:14:25;;;;;;;2.30;1.75;;;12.00;89.80;;;;;;5036677;28;20186;-84
2022/09/29 11:16:57;;;;;;;2.05;1.25;;;11.90;89.30;;;;;;5033780;28;20277;-85
2022/09/29 11:19:30;;;;;;;1.63;1.13;;;11.80;88.10;;;;;;5032820;28;20226;-84
2022/09/29 11:22:29;;;;;;;1.33;1.23;;;11.70;88.10;;;;;;5041646;28;20203;-85
2022/09/29 11:25:13;;;;;;;1.08;1.08;;;11.70;89.70;;;;;;5036699;28;20199;-84
2022/09/29 11:27:59;;;;;;;1.50;1.10;;;11.60;87.80;;;;;;5020461;28;20209;-87
2022/09/29 11:30:47;;;;;;;1.30;1.20;;;11.60;90.20;;;;;;5034036;28;20696;-87
2022/09/29 11:33:30;;;;;;;1.90;1.48;;;11.50;88.50;;;;;;5033762;28;20285;-86
2022/09/29 11:36:09;;;;;;;1.33;1.23;;;11.70;92.20;;;;;;5034264;28;20203;-86
2022/09/29 11:38:59;;;;;;;1.30;1.20;;;11.80;91.40;;;;;;5037521;28;20301;-86
2022/09/29 11:41:52;;;;;;;2.50;1.30;;;11.80;92.30;;;;;;5029859;28;20213;-85
2022/09/29 11:44:44;;;;;;;2.60;1.23;;;11.60;91.80;;;;;;5033719;28;20210;-87
2022/09/29 11:47:28;;;;;;;1.38;1.27;;;11.70;92.50;;;;;;5038957;28;20209;-87
2022/09/29 11:50:13;;;;;;;1.30;1.20;;;11.70;92.10;;;;;;5034918;28;20210;-86
2022/09/29 11:53:11;;;;;;;1.40;1.30;;;11.60;93.20;;;;;;5018068;28;20206;-86
2022/09/29 11:55:57;;;;;;;1.27;1.17;;;11.40;93.40;;;;;;5041186;28;20194;-86
2022/09/29 11:58:40;;;;;;;1.95;1.10;;;11.20;92.70;;;;;;5035414;28;20210;-85
2022/09/29 12:01:22;;;;;;;2.05;1.20;;;11.20;94.20;;;;;;5042081;28;20226;-85
2022/09/29 12:04:14;;;;;;;1.50;1.40;;;11.30;94.00;;;;;;5036560;28;20199;-84
2022/09/29 12:07:06;;;;;;;4.00;1.15;;;11.50;93.20;;;;;;5044956;28;20199;-86
2022/09/29 12:09:55;;;;;;;1.55;1.30;;;11.50;94.60;;;;;;5037628;28;20206;-86
2022/09/29 12:12:59;;;;;;;2.22;1.10;;;11.30;94.10;;;;;;5026051;28;20258;-86
2022/09/29 12:15:39;;;;;;;1.10;1.00;;;11.30;93.60;;;;;;5043281;28;20194;-86
2022/09/29 12:18:14;;;;;;;1.88;1.10;;;11.50;93.60;;;;;;5045253;28;20221;-85
2022/09/29 12:21:01;;;;;;;1.88;1.00;;;11.60;92.60;;;;;;5044810;28;20260;-86
2022/09/29 12:23:40;;;;;;;1.30;1.20;;;11.50;92.30;;;;;;5044754;28;20221;-89
2022/09/29 12:26:14;;;;;;;1.75;1.30;;;11.30;93.00;;;;;;5037941;28;20234;-88
2022/09/29 12:28:45;;;;;;;1.40;1.13;;;11.20;93.30;;;;;;5041770;28;20239;-88
2022/09/29 12:31:27;;;;;;;4.72;1.60;;;11.20;93.50;;;;;;5041148;28;20285;-86
2022/09/29 12:34:17;;;;;;;2.45;1.58;;;11.10;93.00;;;;;;5039553;28;20226;-86
2022/09/29 12:37:01;;;;;;;2.00;1.55;;;11.10;93.60;;;;;;5037322;28;20206;-86
2022/09/29 12:39:38;;;;;;;3.45;2.00;;;11.20;94.40;;;;;;5034314;28;20219;-88
2022/09/29 12:42:34;;;;;;;3.17;2.08;;;11.40;94.00;;;;;;5019732;28;20254;-85
2022/09/29 12:45:06;;;;;;;1.77;1.60;;;11.70;92.90;;;;;;5035276;28;20212;-86
2022/09/29 12:47:51;;;;;;;3.35;2.42;;;11.60;93.30;;;;;;5039400;28;20206;-87
2022/09/29 12:50:25;;;;;;;3.30;2.15;;;11.70;93.90;;;;;;5036087;28;20730;-86
2022/09/29 12:53:18;;;;;;;2.97;1.60;;;11.60;93.40;;;;;;5039432;28;20197;-86
2022/09/29 12:55:54;;;;;;;2.28;1.48;;;11.50;94.20;;;;;;5032993;28;20904;-87
2022/09/29 12:58:38;;;;;;;2.33;1.60;;;11.40;94.30;;;;;;5001092;28;20260;-86
2022/09/29 13:01:20;;;;;;;1.90;1.70;;;11.60;94.20;;;;;;5034896;28;20219;-86
2022/09/29 13:04:21;;;;;;;2.97;1.65;;;11.70;93.40;;;;;;5036883;28;20232;-86
2022/09/29 13:07:17;;;;;;;2.03;1.60;;;12.00;92.30;;;;;;5033654;28;20210;-87
2022/09/29 13:10:06;;;;;;;2.58;1.30;;;12.10;93.50;;;;;;4972400;28;20210;-86
2022/09/29 13:13:08;;;;;;;5.57;1.75;;;11.80;93.30;;;;;;4972111;28;20188;-86
2022/09/29 13:15:56;;;;;;;2.22;2.00;;;11.90;92.50;;;;;;4978156;28;20199;-85
2022/09/29 13:18:34;;;;;;;3.08;2.38;;;11.70;93.40;;;;;;4968990;28;20209;-85
2022/09/29 13:21:14;;;;;;;2.70;2.30;;;11.50;94.60;;;;;;4970953;28;20220;-86
2022/09/29 13:24:05;;;;;;;3.58;2.40;;;11.40;95.20;;;;;;4969146;28;20203;-86
2022/09/29 13:27:09;;;;;;;3.00;2.42;;;11.20;95.20;;;;;;4966682;28;20299;-84
2022/09/29 13:30:04;;;;;;;3.58;2.53;;;11.20;95.20;;;;;;4915495;29;21952;-85
2022/09/29 13:32:39;;;;;;;3.00;2.70;;;11.10;96.80;;;;;;4914249;29;20221;-85
2022/09/29 13:35:18;;;;;;;3.08;2.50;;;11.30;96.00;;;;;;4911318;29;20209;-86
2022/09/29 13:42:56;;;;;;;3.47;2.60;;;11.10;95.80;;;;;;5035528;28;20233;-86
2022/09/29 13:45:52;;;;;;;3.15;2.42;;;11.20;96.40;;;;;;5031656;28;20250;-86
2022/09/29 13:48:40;;;;;;;3.08;2.50;;;11.00;96.30;;;;;;5031995;28;20198;-85
2022/09/29 13:51:24;;;;;;;2.65;2.45;;;10.90;95.90;;;;;;5035433;28;20296;-85
2022/09/29 13:54:29;;;;;;;3.30;3.00;;;11.00;95.90;;;;;;5033949;28;20572;-87